createdAt,value
2019-05-10T00:00:11.768Z,91.74
2019-05-10T00:05:32.355Z,92.57
2019-05-10T00:10:35.283Z,92.20
2019-05-10T00:15:36.963Z,91.59
2019-05-10T00:20:38.442Z,91.39
2019-05-10T00:25:40.426Z,91.39
2019-05-10T00:30:42.006Z,91.68
2019-05-10T00:35:43.774Z,91.44
2019-05-10T00:40:45.311Z,91.55
2019-05-10T00:45:46.883Z,91.46
2019-05-10T00:50:48.386Z,91.67
2019-05-10T00:55:49.950Z,92.36
2019-05-10T01:01:22.413Z,90.59
2019-05-10T01:06:23.891Z,90.53
2019-05-10T01:11:25.514Z,92.06
2019-05-10T01:16:27.119Z,91.56
2019-05-10T01:21:28.594Z,92.42
2019-05-10T01:26:30.179Z,91.86
2019-05-10T01:31:31.816Z,91.29
2019-05-10T01:36:33.342Z,90.86
2019-05-10T01:41:35.039Z,90.18
2019-05-10T01:46:36.569Z,90.89
2019-05-10T01:51:38.157Z,91.57
2019-05-10T01:56:39.974Z,91.81
2019-05-10T02:01:41.443Z,92.24
2019-05-10T02:06:42.958Z,92.43
2019-05-10T02:11:44.428Z,92.54
2019-05-10T02:16:45.967Z,91.79
2019-05-10T02:21:47.452Z,91.51
2019-05-10T02:26:49.056Z,92.00
2019-05-10T02:31:50.638Z,91.99
2019-05-10T02:36:52.352Z,92.30
2019-05-10T02:41:53.934Z,91.97
2019-05-10T02:46:55.755Z,92.48
2019-05-10T02:51:57.242Z,92.56
2019-05-10T02:57:02.035Z,92.11
2019-05-10T03:02:05.025Z,92.42
2019-05-10T03:07:06.793Z,91.45
2019-05-10T03:12:24.691Z,91.29
2019-05-10T03:17:27.369Z,93.06
2019-05-10T03:22:34.683Z,93.18
2019-05-10T03:27:36.972Z,92.12
2019-05-10T03:32:38.577Z,91.77
2019-05-10T03:37:40.684Z,91.77
2019-05-10T03:42:42.623Z,91.76
2019-05-10T03:47:44.118Z,91.58
2019-05-10T03:52:51.678Z,92.12
2019-05-10T03:57:50.376Z,92.10
2019-05-10T04:02:52.060Z,92.18
2019-05-10T04:07:53.531Z,92.00
2019-05-10T04:12:55.064Z,91.35
2019-05-10T04:17:56.826Z,91.14
2019-05-10T04:22:58.389Z,91.52
2019-05-10T04:27:59.863Z,90.85
2019-05-10T04:33:01.431Z,89.06
2019-05-10T04:38:03.149Z,89.26
2019-05-10T04:43:04.641Z,87.02
2019-05-10T04:48:06.196Z,85.70
2019-05-10T04:53:07.827Z,85.23
2019-05-10T04:58:09.289Z,84.85
2019-05-10T05:03:10.755Z,85.19
2019-05-10T05:08:12.232Z,86.04
2019-05-10T05:13:13.709Z,84.80
2019-05-10T05:18:15.230Z,83.99
2019-05-10T05:23:16.743Z,83.77
2019-05-10T05:28:22.542Z,83.05
2019-05-10T05:33:21.631Z,83.15
2019-05-10T05:38:23.163Z,82.00
2019-05-10T05:43:24.649Z,80.75
2019-05-10T05:48:39.561Z,80.24
2019-05-10T05:53:29.575Z,80.82
2019-05-10T05:58:31.046Z,79.03
2019-05-10T06:03:32.631Z,77.89
2019-05-10T06:08:34.119Z,76.49
2019-05-10T06:13:35.600Z,77.79
2019-05-10T06:18:41.649Z,74.56
2019-05-10T06:23:40.535Z,72.59
2019-05-10T06:28:58.593Z,75.22
2019-05-10T06:33:46.834Z,72.50
2019-05-10T06:38:48.536Z,72.49
2019-05-10T06:43:51.423Z,74.56
2019-05-10T06:48:53.597Z,71.27
2019-05-10T06:53:55.093Z,72.22
2019-05-10T06:59:12.004Z,70.33
2019-05-10T07:03:59.943Z,70.26
2019-05-10T07:09:01.417Z,69.14
2019-05-10T07:14:04.607Z,69.06
2019-05-10T07:19:06.253Z,69.59
2019-05-10T07:24:07.931Z,69.50
2019-05-10T07:29:09.494Z,68.78
2019-05-10T07:34:15.826Z,70.57
2019-05-10T07:39:14.435Z,71.64
2019-05-10T07:44:15.962Z,67.12
2019-05-10T07:49:17.470Z,69.19
2019-05-10T07:54:18.993Z,70.32
2019-05-10T07:59:22.090Z,70.45
2019-05-10T08:04:29.121Z,69.55
2019-05-10T08:09:31.479Z,67.23
2019-05-10T08:14:30.592Z,68.50
2019-05-10T08:19:32.677Z,68.64
2019-05-10T08:24:35.684Z,68.34
2019-05-10T08:29:37.370Z,69.28
2019-05-10T08:34:39.486Z,67.69
2019-05-10T08:39:47.910Z,67.28
2019-05-10T08:44:45.989Z,67.06
2019-05-10T08:50:06.461Z,64.64
2019-05-10T08:54:54.955Z,69.02
2019-05-10T09:00:06.587Z,69.22
2019-05-10T09:04:57.867Z,70.39
2019-05-10T09:10:02.079Z,68.85
2019-05-10T09:15:09.710Z,69.78
2019-05-10T09:20:12.043Z,70.90
2019-05-10T09:25:13.359Z,66.95
2019-05-10T09:30:29.556Z,67.09
2019-05-10T09:35:33.100Z,65.53
2019-05-10T09:40:34.821Z,64.94
2019-05-10T09:45:36.475Z,66.17
2019-05-10T09:50:44.920Z,62.82
2019-05-10T09:55:45.655Z,64.85
2019-05-10T10:00:48.346Z,65.56
2019-05-10T10:05:49.068Z,66.55
2019-05-10T10:10:50.716Z,63.77
2019-05-10T10:15:52.643Z,63.71
2019-05-10T10:20:54.570Z,64.98
2019-05-10T10:25:57.980Z,65.22
2019-05-10T10:31:05.308Z,64.11
2019-05-10T10:36:07.474Z,64.37
2019-05-10T10:41:08.323Z,61.92
2019-05-10T10:46:12.391Z,66.30
2019-05-10T10:51:13.626Z,67.84
2019-05-10T10:56:17.469Z,66.64
2019-05-10T11:01:24.736Z,62.80
2019-05-10T11:06:21.935Z,63.43
2019-05-10T11:11:23.412Z,64.55
2019-05-10T11:16:24.881Z,64.85
2019-05-10T11:21:28.770Z,66.47
2019-05-10T11:26:32.849Z,67.12
2019-05-10T11:31:33.397Z,71.27
2019-05-10T11:36:35.063Z,70.94
2019-05-10T11:41:36.544Z,70.53
2019-05-10T11:46:41.465Z,73.00
2019-05-10T11:51:42.571Z,75.81
2019-05-10T11:56:44.067Z,72.74
2019-05-10T12:01:54.827Z,70.77
2019-05-10T12:06:51.292Z,72.37
2019-05-10T12:11:56.464Z,68.90
2019-05-10T12:16:56.438Z,69.64
2019-05-10T12:21:57.910Z,70.09
2019-05-10T12:27:17.318Z,71.02
2019-05-10T12:32:03.083Z,70.28
2019-05-10T12:37:08.291Z,70.65
2019-05-10T12:42:08.192Z,70.65
2019-05-10T12:47:11.326Z,65.86
2019-05-10T12:52:14.049Z,60.12
2019-05-10T12:57:16.566Z,59.48
2019-05-10T13:02:18.292Z,66.24
2019-05-10T13:07:19.815Z,67.98
2019-05-10T13:12:21.419Z,68.65
2019-05-10T13:17:22.886Z,70.00
2019-05-10T13:22:24.362Z,71.39
2019-05-10T13:27:25.947Z,72.31
2019-05-10T13:32:27.423Z,75.78
2019-05-10T13:37:29.507Z,77.64
2019-05-10T13:42:36.805Z,80.85
2019-05-10T13:47:34.610Z,83.02
2019-05-10T13:52:38.823Z,82.57
2019-05-10T13:57:39.494Z,86.06
2019-05-10T14:02:41.069Z,84.71
2019-05-10T14:07:50.277Z,86.50
2019-05-10T14:12:46.377Z,85.79
2019-05-10T14:17:47.913Z,85.82
2019-05-10T14:22:55.856Z,86.75
2019-05-10T14:27:52.928Z,85.70
2019-05-10T14:32:54.403Z,85.83
2019-05-10T14:38:07.199Z,87.69
2019-05-10T14:42:59.363Z,89.88
2019-05-10T14:48:00.895Z,90.10
2019-05-10T14:53:02.622Z,89.54
2019-05-10T14:58:04.354Z,90.25
2019-05-10T15:03:05.819Z,90.17
2019-05-10T15:08:07.297Z,91.55
2019-05-10T15:13:08.891Z,92.53
2019-05-10T15:18:10.503Z,92.29
2019-05-10T15:23:12.338Z,91.26
2019-05-10T15:28:13.912Z,92.72
2019-05-10T15:33:15.395Z,93.07
2019-05-10T15:38:16.886Z,94.40
2019-05-10T15:43:25.287Z,92.33
2019-05-10T15:48:26.814Z,93.14
2019-05-10T15:53:28.331Z,89.41
2019-05-10T15:58:30.648Z,89.25
2019-05-10T16:03:33.661Z,90.51
2019-05-10T16:08:35.137Z,85.59
2019-05-10T16:13:36.671Z,86.90
2019-05-10T16:18:40.126Z,82.75
2019-05-10T16:23:46.759Z,86.51
2019-05-10T16:28:45.375Z,85.69
2019-05-10T16:33:48.150Z,87.53
2019-05-10T16:38:50.624Z,87.88
2019-05-10T16:43:58.119Z,88.87
2019-05-10T16:48:55.638Z,88.63
2019-05-10T16:53:57.140Z,89.23
2019-05-10T16:58:59.593Z,88.60
2019-05-10T17:04:01.816Z,89.46
2019-05-10T17:09:09.387Z,89.36
2019-05-10T17:14:12.559Z,90.11
2019-05-10T17:19:13.294Z,90.60
2019-05-10T17:24:18.596Z,91.63
2019-05-10T17:29:19.284Z,91.60
2019-05-10T17:34:29.018Z,92.59
2019-05-10T17:39:26.016Z,91.51
2019-05-10T17:44:27.627Z,90.93
2019-05-10T17:49:29.385Z,90.15
2019-05-10T17:54:33.668Z,90.67
2019-05-10T17:59:34.294Z,90.35
2019-05-10T18:04:35.796Z,91.50
2019-05-10T18:09:37.282Z,91.87
2019-05-10T18:14:38.915Z,92.48
2019-05-10T18:19:40.579Z,92.82
2019-05-10T18:24:42.451Z,93.01
2019-05-10T18:29:44.143Z,93.17
2019-05-10T18:34:47.335Z,93.33
2019-05-10T18:39:52.921Z,93.59
2019-05-10T18:44:54.237Z,92.59
2019-05-10T18:49:55.955Z,92.19
2019-05-10T18:54:57.443Z,92.46
2019-05-10T18:59:58.960Z,92.63
2019-05-10T19:05:01.010Z,93.08
2019-05-10T19:10:05.609Z,92.70
2019-05-10T19:15:09.984Z,92.78
2019-05-10T19:20:16.339Z,92.97
2019-05-10T19:25:16.203Z,92.96
2019-05-10T19:30:20.561Z,92.91
2019-05-10T19:35:22.283Z,92.91
2019-05-10T19:40:23.976Z,93.20
2019-05-10T19:45:25.715Z,93.66
2019-05-10T19:50:30.925Z,93.52
2019-05-10T19:55:30.583Z,93.24
2019-05-10T20:00:32.410Z,93.31
2019-05-10T20:05:34.108Z,93.20
2019-05-10T20:10:35.606Z,92.78
2019-05-10T20:15:37.179Z,92.39
2019-05-10T20:20:38.646Z,92.27
2019-05-10T20:25:40.268Z,92.14
2019-05-10T20:30:41.784Z,92.43
2019-05-10T20:35:44.363Z,92.16
2019-05-10T20:40:46.059Z,92.12
2019-05-10T20:45:47.635Z,92.03
2019-05-10T20:50:49.151Z,91.97
2019-05-10T20:55:50.633Z,91.73
2019-05-10T21:00:52.313Z,91.49
2019-05-10T21:05:53.782Z,91.43
2019-05-10T21:10:55.255Z,91.55
2019-05-10T21:15:56.832Z,91.56
2019-05-10T21:20:58.328Z,91.41
2019-05-10T21:25:59.807Z,91.33
2019-05-10T21:31:01.366Z,91.15
2019-05-10T21:36:02.922Z,90.79
2019-05-10T21:41:04.507Z,90.85
2019-05-10T21:46:05.979Z,90.60
2019-05-10T21:51:07.463Z,90.46
2019-05-10T21:56:09.312Z,90.24
2019-05-10T22:01:11.086Z,89.91
2019-05-10T22:06:12.879Z,89.92
2019-05-10T22:11:15.459Z,89.83
2019-05-10T22:16:17.141Z,89.50
2019-05-10T22:21:18.687Z,89.40
2019-05-10T22:26:20.230Z,89.88
2019-05-10T22:31:21.695Z,89.92
2019-05-10T22:36:23.222Z,90.38
2019-05-10T22:41:24.799Z,90.35
2019-05-10T22:46:26.274Z,90.41
2019-05-10T22:51:27.963Z,90.40
2019-05-10T22:56:29.526Z,90.42
2019-05-10T23:01:31.112Z,90.51
2019-05-10T23:06:33.062Z,90.56
2019-05-10T23:11:34.635Z,90.53
2019-05-10T23:16:36.104Z,90.62
2019-05-10T23:21:37.670Z,90.54
2019-05-10T23:26:39.199Z,90.43
2019-05-10T23:31:40.890Z,90.39
2019-05-10T23:36:42.469Z,90.47
2019-05-10T23:41:44.056Z,90.06
2019-05-10T23:46:45.634Z,89.85
2019-05-10T23:51:47.110Z,89.68
2019-05-10T23:56:48.594Z,89.80
